*** The Vicarage Weather Feed ***

Nearby METAR Reports


 

CYOO - Oshawa, Municipal Airport, Ontario, Canada
Distance from station: NW 3.2km
Updated: 21/10/2018 12:00
Overcast
Overcast
 Wind from W
Wind: W 22 km/h
Temperature: 3°C
Wind Chill: -2°C
Dew Point: -4°C
Humidity: 60%
Barometer: 1021.3 hPa
Clouds: Overcast
Visibility: 14 km
Cloud details: Overcast 1097 m
2018/10/21 16:00 CYOO 211600Z AUTO 28012KT 9SM OVC036 03/M04 A3016 RMK SLP218
CYKZ - Toronto, Buttonville, Municipal Airport, Ontario, Canada
Distance from station: W 39.75km
Updated: 21/10/2018 12:00
Overcast
Overcast
 Wind from NW
Wind: NW 19 km/h
Temperature: 3°C
Wind Chill: -2°C
Dew Point: -3°C
Humidity: 65%
Barometer: 1021.3 hPa
Clouds: Overcast
Visibility: 24 km
Cloud details: Mostly cloudy 610 m
Overcast 914 m
2018/10/21 16:00 CYKZ 211600Z 32010KT 280V350 15SM BKN020 OVC030 03/M03 A3016 RMK CU5SC3 SLP221
 
CXTO - Toronto City, Buttonville, Ontario, Canada
Distance from station: WSW 49km
Updated: 21/10/2018 12:00

 
Temperature: 4°C
Dew Point: -4°C
Humidity: 56%
2018/10/21 16:00 CXTO 211600Z AUTO 04/M04 RMK AO1 SLP218 T00441040 50003
CYTZ - Toronto City, Island Airport, Ontario, Canada
Distance from station: SW 51.7km
Updated: 21/10/2018 12:00
Overcast
Overcast
 Wind from NNW
Wind: NNW 13 km/h
Temperature: 5°C
Wind Chill: 2°C
Dew Point: -4°C
Humidity: 53%
Barometer: 1021.7 hPa
Clouds: Overcast
Visibility: 14 km
Cloud details: Overcast 1311 m
2018/10/21 16:00 CYTZ 211600Z AUTO 33007KT 300V360 9SM OVC043 05/M04 A3017 RMK SLP222
 
CYPQ - Toronto, Peterborough Airport, Ontario, Canada
Distance from station: NE 54km
Updated: 21/10/2018 12:00
Mostly cloudy
Mostly cloudy
 Wind from NW
Wind: NW 24 km/h, Gust: 33 km/h
Temperature: 2°C
Wind Chill: -3°C
Dew Point: -6°C
Humidity: 56%
Barometer: 1020 hPa
Clouds: Mostly cloudy
Visibility: 14 km
Cloud details: Mostly cloudy 1250 m
2018/10/21 16:00 CYPQ 211600Z AUTO 31013G18KT 290V360 9SM BKN041 02/M06 A3012 RMK SLP210
CWNC - Cobourg, (mars), Ontario, Canada
Distance from station: E 57km
Updated: 21/10/2018 12:00

 Wind from NNW
Wind: NNW 13 km/h
Temperature: 4°C
Wind Chill: 1°C
Dew Point: -6°C
Humidity: 48%
2018/10/21 16:00 CWNC 211600Z AUTO 33007KT 04/M06 RMK AO1 SLP203 T00411063 51007
 
CYYZ - Toronto, Lester Pearson Airport, Ontario, Canada
Distance from station: W 65.5km
Updated: 21/10/2018 12:00
Mostly cloudy
Mostly cloudy
 Wind from WNW
Wind: WNW 35 km/h
Temperature: 4°C
Wind Chill: -2°C
Dew Point: -6°C
Humidity: 48%
Barometer: 1021.7 hPa
Clouds: Mostly cloudy
Visibility: 24 km
Cloud details: Mostly cloudy 1219 m
2018/10/21 16:00 CYYZ 211600Z 29019KT 15SM BKN040 04/M06 A3017 RMK SC7 SLP222
CWGL - Lagoon City, Ontario, Canada
Distance from station: NNW 74km
Updated: 21/10/2018 12:00

 Wind from WNW
Wind: WNW 22 km/h, Gust: 31 km/h
Temperature: 1°C
Wind Chill: -4°C
Dew Point: -6°C
Humidity: 60%
2018/10/21 16:00 CWGL 211600Z AUTO 30012G17KT 01/M06 RMK AO1 PK WND 34020/1503 SLP209 T00121061 50006
 
CWWZ - Port Weller Airport, Ontario, Canada
Distance from station: SSW 77km
Updated: 21/10/2018 12:00

 Wind from WNW
Wind: WNW 33 km/h, Gust: 44 km/h
Temperature: 6°C
Wind Chill: 1°C
Dew Point: 0°C
Humidity: 66%
2018/10/21 16:00 CWWZ 211600Z AUTO 30018G24KT 06/00 RMK AO1 PK WND 29031/1549 SLP223 T00550000 50006
CYSN - St.Catharines Niagara Airport, Ontario, Canada
Distance from station: SSW 81km
Updated: 21/10/2018 12:00
Mostly cloudy
Mostly cloudy
 Wind from WNW
Wind: WNW 20 km/h, Gust: 30 km/h
Temperature: 5°C
Wind Chill: 1°C
Dew Point: -3°C
Humidity: 57%
Barometer: 1021.7 hPa
Clouds: Mostly cloudy
Visibility: 24 km
Cloud details: Mostly cloudy 1219 m
2018/10/21 16:00 CYSN 211600Z 29011G16KT 15SM BKN040 05/M03 A3017 RMK SC7 SLP222
This data is offered only as a general guide to local weather conditions. It should not be relied upon in lieu of officially disseminated weather information for determining possible risk to persons or property. This site, including all information contained therein, is made available as is without warranties of any kind, either express or implied. The Vicarage Weather Feed© includes links to other sites for user convenience only. The content of any linked third-party site is not controlled by The Vicarage Weather Feed©. Access to any third-party website through The Vicarage Weather Feed©, regardless of whether or not the third-party site is a linked site, is entirely at the users own risk. Externally sourced content or material is excluded from The Vicarage Weather Feed© copyright and is the copyright and property of the respective provider. Skywarn® and the Skywarn® logo are registered trademarks of the National Oceanic and Atmospheric Administration, used with permission.